Terminal Aerodrome Forecast
Issued by NWS

Home | Current Version | Previous Version | Text Only | Print | Product List | Glossary On
Versions: 1 2 3 4 5 6 7 8 9 10 11 12
000
FTUS44 KTSA 301133
TAFFYV
TAF
KFYV 301133Z 3012/3112 17004KT P6SM BKN080
      TEMPO 3012/3014 5SM BR
     FM301800 17008KT P6SM SCT040 BKN100
     FM310100 17003KT P6SM SCT120=

USA.gov is the U.S. government's official web portal to all federal, state and local government web resources and services.